Time;durP1;ratioP1;P1;durP2;ratioP2;P2;SDS_P1;SDS_P2;PMS_P1;PMS_P2;Temp;Humidity;BMP_temperature;BMP_pressure;BME280_temperature;BME280_humidity;BME280_pressure;Samples;Min_cycle;Max_cycle;Signal;HPM_P1;HPM_P2
2022/06/13 00:01:56;;;;;;;12.80;6.10;;;;;;;17.29;50.90;99043.44;104964;1288;99267;-69
2022/06/13 00:04:26;;;;;;;10.70;5.80;;;;;;;17.31;51.03;99044.16;104855;1288;108309;-70
2022/06/13 00:06:56;;;;;;;12.90;5.40;;;;;;;17.31;50.88;99044.36;104716;1287;99387;-70
2022/06/13 00:09:26;;;;;;;11.50;5.30;;;;;;;17.24;50.84;99044.11;104756;1288;96642;-68
2022/06/13 00:11:57;;;;;;;11.30;5.90;;;;;;;17.07;50.74;99044.33;104742;1288;115645;-70
2022/06/13 00:14:24;;;;;;;18.60;5.80;;;;;;;16.92;50.93;99040.78;105068;1287;99361;-68
2022/06/13 00:16:52;;;;;;;12.40;6.00;;;;;;;16.77;50.94;99038.20;105112;1287;107524;-69
2022/06/13 00:19:20;;;;;;;13.40;5.80;;;;;;;16.65;51.15;99039.36;104937;1287;98387;-68
2022/06/13 00:21:48;;;;;;;15.00;5.70;;;;;;;16.60;51.54;99037.48;104948;1287;99341;-68
2022/06/13 00:24:16;;;;;;;18.70;6.00;;;;;;;16.62;51.71;99030.10;105021;1287;113505;-69
2022/06/13 00:26:44;;;;;;;12.40;5.40;;;;;;;16.67;51.73;99028.04;105060;1287;99279;-69
2022/06/13 00:29:12;;;;;;;12.80;5.80;;;;;;;16.70;51.95;99025.85;104986;1286;108199;-68
2022/06/13 00:31:41;;;;;;;13.40;5.30;;;;;;;16.72;51.99;99023.45;104989;1287;99346;-68
2022/06/13 00:34:09;;;;;;;13.50;5.20;;;;;;;16.73;52.07;99021.03;105068;1287;99345;-69
2022/06/13 00:36:37;;;;;;;12.60;5.80;;;;;;;16.72;52.07;99019.52;104760;1288;112954;-68
2022/06/13 00:39:05;;;;;;;11.50;5.80;;;;;;;16.70;51.91;99016.14;104899;1287;99319;-68
2022/06/13 00:41:37;;;;;;;12.90;5.80;;;;;;;16.63;52.00;99014.84;104911;1287;108336;-68
2022/06/13 00:44:33;;;;;;;12.20;6.00;;;;;;;16.54;51.72;99011.62;104946;1287;99338;-69
2022/06/13 00:47:02;;;;;;;11.30;5.10;;;;;;;16.40;51.93;99011.58;104612;1290;99275;-68
2022/06/13 00:49:43;;;;;;;11.80;5.60;;;;;;;16.26;51.89;99011.68;104852;1287;112879;-68
2022/06/13 00:52:43;;;;;;;13.20;6.10;;;;;;;16.07;52.32;99013.61;105093;1286;96771;-68
2022/06/13 00:55:15;;;;;;;13.50;5.90;;;;;;;15.95;52.87;99016.23;104750;1287;108472;-68
2022/06/13 00:57:43;;;;;;;12.80;6.00;;;;;;;15.94;53.04;99010.21;105133;1287;99312;-68
2022/06/13 01:00:16;;;;;;;10.70;5.60;;;;;;;15.97;53.09;99008.16;105135;1287;99134;-68
2022/06/13 01:02:47;;;;;;;11.90;6.60;;;;;;;15.99;52.99;99006.92;105173;1287;112933;-69
2022/06/13 01:05:21;;;;;;;12.40;6.30;;;;;;;15.92;52.86;99002.38;105011;1286;99246;-69
2022/06/13 01:07:51;;;;;;;15.00;6.50;;;;;;;15.83;52.64;99004.11;105050;1287;108771;-67
2022/06/13 01:13:10;;;;;;;12.50;6.30;;;;;;;15.50;53.13;99000.06;105074;1287;99243;-69
2022/06/13 01:15:50;;;;;;;14.70;6.60;;;;;;;15.40;53.57;99003.44;105099;1287;113268;-69
2022/06/13 01:18:47;;;;;;;12.10;6.10;;;;;;;15.37;53.90;99000.88;105110;1287;99422;-69
2022/06/13 01:21:36;;;;;;;13.90;6.50;;;;;;;15.41;54.05;99001.80;105087;1287;108324;-69
2022/06/13 01:24:42;;;;;;;16.00;6.70;;;;;;;15.43;54.13;98999.80;105118;1287;99344;-70
2022/06/13 01:27:37;;;;;;;13.20;6.50;;;;;;;15.44;54.13;98996.70;105084;1287;99153;-69
2022/06/13 01:30:33;;;;;;;13.20;6.30;;;;;;;15.39;53.93;98996.21;105061;1287;113448;-67
2022/06/13 01:33:26;;;;;;;15.80;6.70;;;;;;;15.28;54.00;98987.59;104814;1287;99275;-69
2022/06/13 01:36:16;;;;;;;15.80;6.40;;;;;;;15.26;54.37;98987.09;104787;1287;108478;-68
2022/06/13 01:39:06;;;;;;;13.70;6.70;;;;;;;15.24;54.50;98983.34;104411;1290;96746;-68
2022/06/13 01:41:47;;;;;;;14.20;6.20;;;;;;;15.27;54.65;98983.24;104778;1288;99255;-69
2022/06/13 01:44:26;;;;;;;15.40;6.40;;;;;;;15.29;54.60;98980.36;104731;1288;113180;-68
2022/06/13 01:47:37;;;;;;;14.60;6.30;;;;;;;15.31;54.65;98982.16;104745;1288;96616;-69
2022/06/13 01:50:08;;;;;;;;;;;;;;;15.31;54.78;98981.80;104513;1291;108605;-69
2022/06/13 01:53:02;;;;;;;13.00;6.40;;;;;;;15.29;54.94;98984.45;104798;1288;99283;-69
2022/06/13 01:55:59;;;;;;;14.90;7.40;;;;;;;15.31;54.78;98984.30;104909;1288;99355;-68
2022/06/13 01:58:41;;;;;;;17.20;8.90;;;;;;;15.24;54.47;98980.29;104709;1290;113455;-69
2022/06/13 02:01:22;;;;;;;19.90;9.80;;;;;;;15.12;54.65;98980.34;104829;1288;99266;-68
2022/06/13 02:04:16;;;;;;;17.60;8.60;;;;;;;15.00;54.60;98976.78;104887;1288;107805;-70
2022/06/13 02:06:52;;;;;;;17.10;7.90;;;;;;;14.89;54.97;98976.02;104952;1288;99357;-68
2022/06/13 02:09:24;;;;;;;17.10;8.70;;;;;;;14.77;54.89;98973.54;104792;1288;99331;-68
2022/06/13 02:11:55;;;;;;;16.60;8.40;;;;;;;14.71;55.45;98969.12;104887;1288;112724;-68
2022/06/13 02:14:48;;;;;;;17.60;9.00;;;;;;;14.73;55.72;98966.55;104920;1287;99684;-70
2022/06/13 02:17:23;;;;;;;16.40;8.60;;;;;;;14.79;55.85;98965.89;104850;1287;108310;-67
2022/06/13 02:20:07;;;;;;;16.00;8.30;;;;;;;14.83;55.77;98965.50;104918;1287;96681;-70
2022/06/13 02:22:41;;;;;;;16.40;9.00;;;;;;;14.86;55.97;98964.84;104896;1287;99134;-69
2022/06/13 02:25:18;;;;;;;19.30;8.30;;;;;;;14.89;55.72;98962.82;104932;1287;112708;-69
2022/06/13 02:27:55;;;;;;;16.50;8.40;;;;;;;14.90;55.59;98962.57;104875;1287;99283;-68
2022/06/13 02:30:36;;;;;;;17.90;8.50;;;;;;;14.85;55.85;98963.88;104947;1287;108470;-68
2022/06/13 02:33:12;;;;;;;16.30;8.60;;;;;;;14.81;56.10;98955.02;104873;1288;99381;-68
2022/06/13 02:35:53;;;;;;;16.90;8.40;;;;;;;14.79;55.80;98952.69;104917;1288;99211;-68
2022/06/13 02:38:31;;;;;;;14.30;8.00;;;;;;;14.73;56.00;98946.29;104967;1288;112839;-68
2022/06/13 02:41:06;;;;;;;16.60;8.50;;;;;;;14.68;56.31;98943.77;104878;1287;97755;-68
2022/06/13 02:43:45;;;;;;;14.50;7.20;;;;;;;14.69;56.59;98939.85;104855;1287;107809;-68
2022/06/13 02:46:24;;;;;;;14.20;7.00;;;;;;;14.71;56.61;98940.53;104979;1287;99373;-68
2022/06/13 02:49:01;;;;;;;15.70;6.90;;;;;;;14.73;56.47;98939.66;104930;1288;99281;-69
2022/06/13 02:51:41;;;;;;;11.50;6.20;;;;;;;14.74;56.69;98938.34;104958;1287;113173;-69
2022/06/13 02:54:24;;;;;;;11.30;6.00;;;;;;;14.76;56.66;98936.23;104973;1287;99242;-69
2022/06/13 02:57:24;;;;;;;11.70;6.30;;;;;;;14.78;56.97;98930.50;104858;1287;107602;-72
2022/06/13 03:00:19;;;;;;;12.40;5.90;;;;;;;14.79;57.10;98926.48;104907;1287;99376;-68
2022/06/13 03:03:09;;;;;;;12.00;6.10;;;;;;;14.82;57.01;98921.70;104877;1288;97194;-68
2022/06/13 03:05:59;;;;;;;12.90;6.40;;;;;;;14.85;57.08;98916.63;104794;1288;113398;-67
2022/06/13 03:08:48;;;;;;;12.50;6.20;;;;;;;14.88;57.07;98919.19;104870;1288;99250;-69
2022/06/13 03:11:23;;;;;;;14.60;6.30;;;;;;;14.91;57.10;98910.00;104817;1288;108429;-68
2022/06/13 03:14:10;;;;;;;12.80;7.00;;;;;;;14.91;57.23;98905.68;104906;1288;99859;-68
2022/06/13 03:17:05;;;;;;;15.20;7.90;;;;;;;14.92;57.51;98904.86;104908;1288;99219;-67
2022/06/13 03:19:42;;;;;;;18.50;10.40;;;;;;;14.95;57.45;98906.41;104752;1290;113130;-68
2022/06/13 03:22:45;;;;;;;17.00;9.60;;;;;;;14.96;57.60;98908.44;105160;1288;99260;-70
2022/06/13 03:25:22;;;;;;;18.90;9.60;;;;;;;15.01;57.73;98908.88;105121;1287;108555;-68
2022/06/13 03:27:57;;;;;;;17.00;9.70;;;;;;;15.04;57.51;98908.59;105115;1287;99319;-68
2022/06/13 03:30:30;;;;;;;16.70;9.40;;;;;;;15.06;57.55;98906.84;105051;1287;97824;-70
2022/06/13 03:35:52;;;;;;;17.70;9.00;;;;;;;15.09;57.49;98910.10;105024;1287;98424;-66
2022/06/13 03:38:27;;;;;;;15.70;8.60;;;;;;;15.09;57.47;98912.81;104997;1287;107752;-70
2022/06/13 03:40:59;;;;;;;16.40;8.90;;;;;;;15.06;57.61;98913.11;104967;1287;99433;-67
2022/06/13 03:43:48;;;;;;;16.50;8.00;;;;;;;15.05;57.67;98914.44;104886;1288;99328;-67
2022/06/13 03:46:57;;;;;;;16.90;8.60;;;;;;;15.07;57.87;98915.10;104693;1288;113350;-68
2022/06/13 03:49:38;;;;;;;14.10;7.90;;;;;;;15.10;58.12;98920.13;106624;1287;97184;-67
2022/06/13 03:52:10;;;;;;;15.30;7.60;;;;;;;15.15;58.15;98916.85;106565;1287;107686;-67
2022/06/13 03:54:59;;;;;;;14.10;7.70;;;;;;;15.21;58.17;98918.62;106419;1287;97637;-66
2022/06/13 03:57:57;;;;;;;15.60;7.10;;;;;;;15.29;58.27;98907.84;106632;1286;97352;-67
2022/06/13 04:00:32;;;;;;;13.80;6.40;;;;;;;15.37;57.98;98901.04;106457;1286;112891;-66
2022/06/13 04:03:01;;;;;;;13.40;6.70;;;;;;;15.42;58.18;98898.44;105473;1287;97353;-66
2022/06/13 04:05:53;;;;;;;12.70;6.40;;;;;;;15.48;58.17;98896.58;104977;1287;107527;-67
2022/06/13 04:08:22;;;;;;;15.40;6.80;;;;;;;15.56;58.34;98894.04;104873;1288;99225;-65
2022/06/13 04:11:09;;;;;;;12.00;6.20;;;;;;;15.62;58.44;98892.02;105164;1287;99321;-67
2022/06/13 04:14:06;;;;;;;11.40;6.40;;;;;;;15.67;58.59;98892.48;105076;1287;113483;-66
2022/06/13 04:17:06;;;;;;;11.50;6.30;;;;;;;15.71;58.67;98895.25;105050;1287;99103;-68
2022/06/13 04:19:42;;;;;;;10.70;5.40;;;;;;;15.76;58.78;98897.52;105137;1287;107398;-69
2022/06/13 04:22:35;;;;;;;13.40;6.50;;;;;;;15.82;58.89;98897.32;105096;1287;96655;-72
2022/06/13 04:25:33;;;;;;;14.80;6.50;;;;;;;15.88;59.02;98893.47;105127;1287;99352;-71
2022/06/13 04:28:22;;;;;;;13.30;6.10;;;;;;;15.96;59.05;98892.44;104910;1287;112760;-68
2022/06/13 04:30:54;;;;;;;17.20;7.00;;;;;;;16.02;59.01;98893.42;104987;1287;99168;-68
2022/06/13 04:33:29;;;;;;;14.00;6.50;;;;;;;16.07;59.02;98893.67;105030;1287;107379;-67
2022/06/13 04:35:59;;;;;;;15.90;7.00;;;;;;;16.12;58.95;98894.45;104979;1287;99264;-67
2022/06/13 04:38:28;;;;;;;14.00;6.90;;;;;;;16.17;59.03;98892.98;105001;1287;99587;-68
2022/06/13 04:41:00;;;;;;;13.50;7.10;;;;;;;16.22;59.19;98893.73;104967;1287;113005;-67
2022/06/13 04:43:34;;;;;;;11.90;6.80;;;;;;;16.28;59.06;98890.48;104973;1287;96996;-68
2022/06/13 04:46:12;;;;;;;12.80;6.70;;;;;;;16.34;59.12;98887.94;104966;1287;108023;-67
2022/06/13 04:48:44;;;;;;;12.70;6.50;;;;;;;16.41;59.23;98890.52;104962;1288;99379;-67
2022/06/13 04:51:20;;;;;;;14.00;6.60;;;;;;;16.47;59.14;98888.44;105004;1287;99446;-67
2022/06/13 04:54:00;;;;;;;19.10;8.50;;;;;;;16.54;59.35;98884.86;105002;1287;111956;-68
2022/06/13 04:56:29;;;;;;;11.00;6.00;;;;;;;16.61;59.35;98876.87;104985;1287;99283;-67
2022/06/13 04:58:59;;;;;;;12.40;5.80;;;;;;;16.67;59.35;98877.83;104966;1287;107104;-67
2022/06/13 05:01:32;;;;;;;11.80;6.30;;;;;;;16.74;59.27;98878.71;104918;1287;96857;-67
2022/06/13 05:04:09;;;;;;;12.30;5.80;;;;;;;16.82;59.25;98880.79;105026;1287;99280;-69
2022/06/13 05:06:44;;;;;;;9.00;5.20;;;;;;;16.90;59.44;98880.38;104950;1288;113078;-68
2022/06/13 05:09:37;;;;;;;11.00;5.80;;;;;;;16.97;59.44;98880.92;104880;1287;99383;-67
2022/06/13 05:12:16;;;;;;;11.40;5.20;;;;;;;17.05;59.42;98875.08;104667;1291;107390;-69
2022/06/13 05:15:07;;;;;;;10.70;5.10;;;;;;;17.14;59.43;98873.80;105008;1287;99257;-67
2022/06/13 05:17:55;;;;;;;11.10;5.30;;;;;;;17.24;59.44;98868.66;105025;1287;96695;-67
2022/06/13 05:20:46;;;;;;;8.80;4.80;;;;;;;17.35;59.43;98868.79;104939;1287;114229;-68
2022/06/13 05:23:34;;;;;;;15.20;5.60;;;;;;;17.47;59.44;98868.67;104964;1290;99309;-69
2022/06/13 05:26:03;;;;;;;10.90;5.20;;;;;;;17.58;59.41;98869.11;104948;1290;107801;-67
2022/06/13 05:28:34;;;;;;;11.60;5.20;;;;;;;17.68;59.47;98867.67;104939;1288;99427;-68
2022/06/13 05:31:18;;;;;;;10.30;5.10;;;;;;;17.81;59.60;98865.61;104948;1287;99369;-67
2022/06/13 05:33:49;;;;;;;9.90;4.60;;;;;;;17.94;59.58;98863.02;104874;1290;112826;-67
2022/06/13 05:36:23;;;;;;;12.70;4.50;;;;;;;18.06;59.71;98864.23;104905;1290;99333;-68
2022/06/13 05:38:59;;;;;;;6.90;4.00;;;;;;;18.19;59.54;98863.83;104805;1288;108790;-67
2022/06/13 05:41:28;;;;;;;10.80;4.30;;;;;;;18.33;59.72;98862.62;104891;1290;96694;-68
2022/06/13 05:43:56;;;;;;;13.10;4.90;;;;;;;18.47;59.40;98859.02;104968;1287;97387;-71
2022/06/13 05:46:36;;;;;;;8.70;4.10;;;;;;;18.60;59.61;98861.73;104953;1287;113109;-71
2022/06/13 05:49:06;;;;;;;6.50;4.10;;;;;;;18.72;59.62;98859.98;104874;1287;99282;-69
2022/06/13 05:51:34;;;;;;;10.60;4.20;;;;;;;18.87;59.67;98862.36;104873;1287;108817;-68
2022/06/13 05:54:02;;;;;;;11.10;4.20;;;;;;;19.01;59.62;98863.11;104836;1287;96773;-67
2022/06/13 05:56:31;;;;;;;9.00;4.40;;;;;;;19.15;59.71;98867.91;104852;1287;99282;-67
2022/06/13 05:58:59;;;;;;;8.00;4.00;;;;;;;19.26;59.66;98865.09;104860;1287;112732;-68
2022/06/13 06:01:27;;;;;;;9.80;4.20;;;;;;;19.38;59.48;98864.52;104868;1287;99283;-67
2022/06/13 06:03:55;;;;;;;8.70;4.00;;;;;;;19.48;59.34;98864.00;104847;1287;107069;-67
2022/06/13 06:06:27;;;;;;;12.80;4.50;;;;;;;19.60;59.40;98864.55;104888;1287;99223;-67
2022/06/13 06:08:56;;;;;;;9.00;3.80;;;;;;;19.70;59.43;98860.64;104935;1287;96663;-67
2022/06/13 06:11:27;;;;;;;9.90;4.20;;;;;;;19.84;59.37;98858.38;104970;1287;112848;-67
2022/06/13 06:13:55;;;;;;;8.20;3.60;;;;;;;19.98;59.29;98854.65;104789;1288;99342;-67
2022/06/13 06:16:25;;;;;;;13.40;3.80;;;;;;;20.13;59.26;98849.83;104986;1287;108652;-68
2022/06/13 06:18:53;;;;;;;7.50;3.70;;;;;;;20.28;59.19;98853.31;104776;1287;99250;-68
2022/06/13 06:21:22;;;;;;;10.10;3.50;;;;;;;20.42;59.20;98848.98;104933;1287;99344;-68
2022/06/13 06:23:50;;;;;;;8.70;3.80;;;;;;;20.58;58.95;98850.50;104916;1286;112733;-68
2022/06/13 06:26:22;;;;;;;7.60;3.30;;;;;;;20.76;59.05;98854.71;104887;1288;99934;-68
2022/06/13 06:28:51;;;;;;;7.00;3.80;;;;;;;20.92;58.88;98854.20;105018;1287;107814;-67
2022/06/13 06:31:20;;;;;;;9.70;3.30;;;;;;;21.07;58.80;98852.53;104918;1287;99259;-66
2022/06/13 06:33:48;;;;;;;7.60;3.90;;;;;;;21.23;58.67;98853.66;104897;1287;99304;-67
2022/06/13 06:36:16;;;;;;;8.50;4.00;;;;;;;21.37;58.64;98846.36;104892;1287;113388;-67
2022/06/13 06:38:45;;;;;;;5.30;3.10;;;;;;;21.55;58.64;98841.96;104900;1287;96828;-67
2022/06/13 06:41:14;;;;;;;8.70;3.70;;;;;;;21.76;58.57;98837.93;104937;1287;108511;-67
2022/06/13 06:43:42;;;;;;;6.30;3.40;;;;;;;21.97;58.44;98832.45;104830;1287;99322;-67
2022/06/13 06:46:12;;;;;;;6.20;3.40;;;;;;;22.19;58.32;98834.97;104911;1287;99353;-67
2022/06/13 06:48:41;;;;;;;4.30;3.10;;;;;;;22.40;58.10;98834.38;104942;1287;111867;-67
2022/06/13 06:51:12;;;;;;;10.60;4.00;;;;;;;22.60;58.34;98836.85;105046;1287;99342;-67
2022/06/13 07:02:12;;;;;;;9.40;3.40;;;;;;;23.70;57.86;98833.86;104965;1287;113403;-68
2022/06/13 07:04:41;;;;;;;8.40;3.30;;;;;;;23.94;57.69;98829.41;105088;1287;99208;-69
2022/06/13 07:07:09;;;;;;;6.70;3.10;;;;;;;24.20;57.24;98826.17;105012;1287;108343;-68
2022/06/13 07:09:39;;;;;;;8.10;3.40;;;;;;;24.46;57.20;98825.11;104900;1288;96686;-70
2022/06/13 07:12:10;;;;;;;4.60;2.80;;;;;;;24.75;57.31;98825.52;104882;1288;96670;-69
2022/06/13 07:14:40;;;;;;;8.00;3.00;;;;;;;25.02;56.65;98828.05;104777;1288;112842;-68
2022/06/13 07:17:10;;;;;;;5.20;2.60;;;;;;;25.21;56.56;98830.06;104834;1288;99312;-67
2022/06/13 07:19:43;;;;;;;6.90;3.20;;;;;;;25.26;55.82;98828.54;104650;1290;107824;-67
2022/06/13 07:22:17;;;;;;;7.40;3.50;;;;;;;25.37;55.47;98822.56;104847;1287;96660;-68
2022/06/13 07:24:47;;;;;;;8.60;2.90;;;;;;;25.54;55.32;98818.42;104815;1288;97737;-68
2022/06/13 07:27:18;;;;;;;4.40;2.90;;;;;;;25.67;55.04;98818.87;104844;1287;112614;-68
2022/06/13 07:29:46;;;;;;;5.00;2.90;;;;;;;25.87;54.98;98821.38;104891;1287;99261;-67
2022/06/13 07:32:26;;;;;;;7.90;2.90;;;;;;;26.15;54.77;98816.88;104820;1288;108507;-69
2022/06/13 07:34:54;;;;;;;8.60;2.50;;;;;;;26.51;54.53;98817.80;104957;1288;98109;-68
2022/06/13 07:40:15;;;;;;;3.80;2.70;;;;;;;27.17;53.35;98814.73;104855;1288;113366;-68
2022/06/13 07:42:53;;;;;;;5.80;2.50;;;;;;;27.47;53.17;98809.45;104900;1288;97037;-69
2022/06/13 07:45:26;;;;;;;4.10;2.20;;;;;;;28.06;52.68;98803.73;104914;1290;107799;-68
2022/06/13 07:48:14;;;;;;;6.80;2.40;;;;;;;29.04;51.68;98800.23;104877;1290;99306;-68
2022/06/13 07:50:44;;;;;;;9.10;2.40;;;;;;;29.51;50.95;98790.14;104945;1288;99308;-69
2022/06/13 07:53:14;;;;;;;6.10;2.00;;;;;;;29.89;49.86;98788.46;104842;1290;113172;-70
2022/06/13 07:56:05;;;;;;;5.40;2.30;;;;;;;30.12;48.20;98785.01;104976;1287;99590;-69
2022/06/13 07:58:37;;;;;;;7.30;2.20;;;;;;;30.13;47.48;98787.16;104994;1287;107775;-67
2022/06/13 08:01:06;;;;;;;3.00;2.00;;;;;;;30.51;48.12;98788.20;104728;1288;99333;-68
2022/06/13 08:03:36;;;;;;;5.00;2.00;;;;;;;31.02;48.33;98781.00;104688;1288;99241;-67
2022/06/13 08:06:07;;;;;;;2.60;1.90;;;;;;;31.54;48.36;98775.27;104765;1289;113430;-69
2022/06/13 08:08:35;;;;;;;7.00;2.00;;;;;;;32.08;47.92;98775.52;104789;1288;100166;-68
2022/06/13 08:11:13;;;;;;;4.60;2.00;;;;;;;32.44;47.38;98775.20;104966;1285;107482;-68
2022/06/13 08:13:46;;;;;;;7.80;2.00;;;;;;;32.67;46.89;98779.11;104915;1288;99369;-69
2022/06/13 08:16:17;;;;;;;3.90;1.80;;;;;;;32.98;46.61;98773.77;104963;1287;96569;-68
2022/06/13 08:18:45;;;;;;;6.10;1.90;;;;;;;33.42;46.56;98774.48;104575;1290;113803;-68
2022/06/13 08:21:17;;;;;;;4.80;1.70;;;;;;;33.59;44.92;98778.02;104806;1290;97630;-69
2022/06/13 08:23:46;;;;;;;6.60;2.30;;;;;;;33.49;44.74;98775.41;104738;1290;108875;-68
2022/06/13 08:26:15;;;;;;;5.50;2.10;;;;;;;33.60;44.17;98777.92;104848;1290;99367;-70
2022/06/13 08:28:44;;;;;;;6.30;1.80;;;;;;;33.80;44.21;98772.39;104861;1290;99690;-70
2022/06/13 08:31:20;;;;;;;4.30;2.00;;;;;;;34.04;43.67;98768.78;104928;1287;112444;-71
2022/06/13 08:33:50;;;;;;;5.70;2.00;;;;;;;34.25;42.27;98764.60;104707;1288;99853;-71
2022/06/13 08:36:21;;;;;;;2.90;1.70;;;;;;;34.40;42.44;98760.02;104922;1288;107315;-69
2022/06/13 08:38:49;;;;;;;5.30;2.20;;;;;;;34.79;42.30;98759.98;104839;1290;99286;-69
2022/06/13 08:41:38;;;;;;;3.60;2.00;;;;;;;35.22;42.12;98759.77;104773;1288;99304;-67
2022/06/13 08:44:24;;;;;;;4.10;1.50;;;;;;;35.70;41.89;98753.20;104642;1288;112707;-69
2022/06/13 08:47:00;;;;;;;4.70;1.70;;;;;;;35.73;40.44;98755.17;104674;1288;99769;-69
2022/06/13 08:49:42;;;;;;;4.20;1.70;;;;;;;35.32;39.43;98750.11;104428;1290;107468;-69
2022/06/13 08:52:33;;;;;;;2.90;1.90;;;;;;;35.00;38.11;98750.05;104766;1290;97988;-68
2022/06/13 08:55:07;;;;;;;4.50;1.70;;;;;;;34.82;38.55;98747.06;104730;1288;98981;-68
2022/06/13 08:57:37;;;;;;;2.50;1.30;;;;;;;34.97;38.50;98748.73;104486;1290;112829;-68
2022/06/13 09:00:11;;;;;;;3.70;1.70;;;;;;;35.26;38.60;98747.71;104727;1288;99271;-66
2022/06/13 09:02:51;;;;;;;2.80;1.40;;;;;;;35.28;37.33;98746.53;104777;1288;107144;-67
2022/06/13 09:05:33;;;;;;;3.20;1.80;;;;;;;35.34;37.52;98741.74;104746;1288;99295;-68
2022/06/13 09:08:11;;;;;;;3.60;1.50;;;;;;;35.60;37.24;98746.25;104852;1288;97944;-68
2022/06/13 09:10:47;;;;;;;3.50;1.60;;;;;;;35.68;36.64;98738.39;104792;1288;113439;-68
2022/06/13 09:13:54;;;;;;;5.30;1.60;;;;;;;35.80;36.60;98730.90;104836;1288;99852;-67
2022/06/13 09:16:29;;;;;;;4.30;1.50;;;;;;;36.11;36.69;98729.52;104165;1288;108458;-68
2022/06/13 09:19:13;;;;;;;3.10;1.40;;;;;;;36.13;36.18;98724.20;104817;1288;99898;-70
2022/06/13 09:21:58;;;;;;;3.30;1.70;;;;;;;35.96;35.40;98718.67;104753;1288;96677;-68
2022/06/13 09:24:47;;;;;;;2.30;1.60;;;;;;;35.77;35.18;98717.14;104768;1287;112827;-68
2022/06/13 09:27:23;;;;;;;1.50;1.40;;;;;;;35.60;35.11;98715.65;104771;1288;99283;-68
2022/06/13 09:29:58;;;;;;;3.80;1.80;;;;;;;35.61;34.98;98711.23;104737;1288;108389;-68
2022/06/13 09:32:39;;;;;;;3.20;1.40;;;;;;;35.57;34.50;98706.33;104711;1288;99229;-68
2022/06/13 09:35:16;;;;;;;2.30;1.50;;;;;;;35.16;33.57;98707.55;104752;1288;99241;-69
2022/06/13 09:37:53;;;;;;;7.10;1.70;;;;;;;34.59;32.59;98704.85;104783;1288;112882;-69
2022/06/13 09:40:57;;;;;;;1.90;1.50;;;;;;;34.22;33.35;98706.86;104779;1288;97140;-70
2022/06/13 09:43:57;;;;;;;3.10;1.70;;;;;;;34.01;33.00;98703.73;104695;1290;108274;-66
2022/06/13 09:46:55;;;;;;;2.10;1.30;;;;;;;33.93;32.55;98698.25;104630;1290;99357;-67
2022/06/13 09:49:45;;;;;;;5.90;1.60;;;;;;;33.72;32.50;98695.23;104769;1288;99235;-68
2022/06/13 09:52:19;;;;;;;4.10;1.30;;;;;;;33.68;32.29;98686.61;104823;1287;112750;-69
2022/06/13 09:55:29;;;;;;;3.20;1.30;;;;;;;33.83;32.44;98689.50;104937;1288;99780;-71
2022/06/13 09:58:05;;;;;;;2.50;1.50;;;;;;;33.60;30.79;98682.13;104449;1289;108452;-68
2022/06/13 10:00:39;;;;;;;2.50;1.50;;;;;;;33.19;31.31;98679.11;104757;1288;99347;-69
2022/06/13 10:03:36;;;;;;;5.50;1.60;;;;;;;33.08;31.35;98675.02;104766;1288;99319;-67
2022/06/13 10:06:21;;;;;;;3.60;1.80;;;;;;;32.97;31.15;98670.63;104719;1288;112626;-68
2022/06/13 10:09:28;;;;;;;7.50;1.60;;;;;;;32.61;31.08;98661.25;104753;1288;99246;-68
2022/06/13 10:12:03;;;;;;;5.70;1.60;;;;;;;32.36;30.90;98650.02;104572;1290;108151;-68
2022/06/13 10:14:59;;;;;;;3.20;1.70;;;;;;;32.13;30.84;98645.13;104544;1290;99390;-67
2022/06/13 10:17:49;;;;;;;2.80;1.50;;;;;;;31.95;30.57;98640.20;104688;1289;99455;-67
2022/06/13 10:20:53;;;;;;;5.00;1.60;;;;;;;31.62;30.05;98633.42;104816;1288;113441;-68
2022/06/13 10:24:04;;;;;;;3.60;1.70;;;;;;;30.99;28.93;98627.30;104883;1288;98425;-69
2022/06/13 10:26:43;;;;;;;4.30;1.90;;;;;;;30.45;29.41;98627.44;104631;1290;108425;-68
2022/06/13 10:29:34;;;;;;;6.20;1.80;;;;;;;30.24;29.70;98622.52;104787;1290;99322;-66
2022/06/13 10:32:13;;;;;;;4.10;1.40;;;;;;;30.14;29.68;98619.57;104972;1288;99193;-67
2022/06/13 10:35:03;;;;;;;2.50;1.50;;;;;;;29.99;28.88;98620.21;104777;1288;112718;-67
2022/06/13 10:37:43;;;;;;;6.10;1.70;;;;;;;29.69;29.00;98614.55;104742;1288;97008;-67
2022/06/13 10:40:15;;;;;;;5.30;2.10;;;;;;;29.49;28.93;98609.08;104696;1290;108395;-69
2022/06/13 10:42:46;;;;;;;5.00;1.50;;;;;;;29.44;29.20;98602.78;104854;1290;99368;-68
2022/06/13 10:45:17;;;;;;;3.40;1.40;;;;;;;29.45;28.95;98597.71;104846;1289;96701;-67
2022/06/13 10:47:59;;;;;;;1.40;1.20;;;;;;;29.43;29.36;98597.08;104826;1289;113431;-67
2022/06/13 10:50:38;;;;;;;5.10;1.60;;;;;;;29.38;29.31;98590.29;104853;1290;99606;-67
2022/06/13 10:53:18;;;;;;;3.10;1.70;;;;;;;29.30;28.94;98588.95;104849;1288;107840;-67
2022/06/13 10:55:52;;;;;;;9.90;1.90;;;;;;;29.09;28.63;98588.10;104779;1290;99358;-68
2022/06/13 10:58:51;;;;;;;6.00;2.20;;;;;;;28.95;28.65;98585.61;104819;1289;99287;-67
2022/06/13 11:01:26;;;;;;;5.70;1.80;;;;;;;28.87;28.64;98583.36;104529;1291;113532;-67
2022/06/13 11:04:26;;;;;;;2.50;1.30;;;;;;;28.77;28.49;98574.52;104867;1288;99850;-68
2022/06/13 11:07:02;;;;;;;5.60;1.90;;;;;;;28.72;28.43;98573.46;104736;1288;108644;-67
2022/06/13 11:09:33;;;;;;;3.30;1.20;;;;;;;28.75;28.80;98574.67;104856;1288;96751;-68
2022/06/13 11:12:18;;;;;;;2.50;1.40;;;;;;;28.75;28.69;98569.31;104878;1288;96667;-67
2022/06/13 11:24:01;;;;;;;2.00;1.50;;;;;;;28.79;28.29;98549.88;104723;1290;99420;-66
2022/06/13 11:29:28;;;;;;;2.30;1.30;;;;;;;28.75;28.21;98538.71;104715;1290;113426;-68
2022/06/13 11:32:02;;;;;;;4.80;2.00;;;;;;;28.79;28.40;98531.98;104743;1290;100236;-67
2022/06/13 11:34:30;;;;;;;2.90;2.10;;;;;;;28.82;28.40;98523.66;104835;1288;107850;-68
2022/06/13 11:37:23;;;;;;;6.30;2.10;;;;;;;28.87;28.39;98520.92;104801;1288;96574;-68
2022/06/13 11:39:53;;;;;;;3.90;1.70;;;;;;;28.92;28.49;98517.01;104769;1288;99247;-68
2022/06/13 11:42:30;;;;;;;2.70;1.60;;;;;;;28.95;28.42;98516.89;104851;1288;112902;-68
2022/06/13 11:45:27;;;;;;;3.60;1.70;;;;;;;28.98;28.47;98514.10;104723;1290;99335;-67
2022/06/13 11:47:57;;;;;;;7.50;2.20;;;;;;;28.99;28.51;98506.19;104705;1290;108426;-68
2022/06/13 11:50:33;;;;;;;4.90;2.20;;;;;;;29.03;28.62;98502.57;104801;1288;99365;-67
2022/06/13 11:55:56;;;;;;;3.40;1.90;;;;;;;29.07;28.46;98495.54;104709;1288;113494;-68
2022/06/13 11:58:37;;;;;;;4.10;1.90;;;;;;;29.02;27.98;98489.16;104673;1289;100115;-66
2022/06/13 12:01:28;;;;;;;5.30;1.60;;;;;;;28.95;27.99;98486.95;104755;1290;109206;-68
2022/06/13 12:04:03;;;;;;;3.20;1.60;;;;;;;28.82;27.98;98475.77;104779;1288;99359;-69
2022/06/13 12:06:40;;;;;;;4.00;1.90;;;;;;;28.78;28.19;98472.80;104830;1288;99847;-69
2022/06/13 12:09:36;;;;;;;2.20;1.70;;;;;;;28.80;28.12;98471.25;104942;1288;113361;-68
2022/06/13 12:12:07;;;;;;;5.70;2.20;;;;;;;28.84;28.28;98470.84;104710;1290;99322;-66
2022/06/13 12:14:43;;;;;;;3.20;1.60;;;;;;;28.87;28.35;98464.74;104767;1288;108487;-69
2022/06/13 12:17:33;;;;;;;4.10;2.00;;;;;;;28.87;28.23;98461.52;104754;1288;99293;-68
2022/06/13 12:20:14;;;;;;;4.10;1.60;;;;;;;28.86;28.14;98449.56;104685;1287;96661;-67
2022/06/13 12:23:12;;;;;;;5.40;2.10;;;;;;;28.85;28.26;98453.26;104698;1290;111838;-66
2022/06/13 12:25:47;;;;;;;2.40;1.90;;;;;;;28.85;28.15;98449.55;104919;1288;99302;-68
2022/06/13 12:28:21;;;;;;;2.70;1.70;;;;;;;28.82;28.39;98451.14;104896;1288;107852;-67
2022/06/13 12:31:12;;;;;;;4.40;1.90;;;;;;;28.69;28.35;98445.80;104826;1288;99840;-67
2022/06/13 12:33:47;;;;;;;4.40;1.80;;;;;;;28.61;28.23;98441.48;104785;1288;99267;-68
2022/06/13 12:36:38;;;;;;;5.00;2.40;;;;;;;28.59;28.14;98436.20;104744;1288;113058;-68
2022/06/13 12:39:31;;;;;;;6.00;2.10;;;;;;;28.64;28.38;98439.69;104725;1288;99351;-68
2022/06/13 12:42:30;;;;;;;6.90;1.90;;;;;;;28.71;28.27;98442.33;104776;1288;107799;-68
2022/06/13 12:45:23;;;;;;;6.00;2.20;;;;;;;28.76;28.55;98439.27;104747;1288;99341;-66